createdAt,value
2023-04-16T00:00:20.153Z,100.00
2023-04-16T00:02:50.055Z,100.00
2023-04-16T00:05:22.565Z,100.00
2023-04-16T00:07:53.029Z,100.00
2023-04-16T00:10:22.818Z,100.00
2023-04-16T00:12:52.799Z,100.00
2023-04-16T00:15:22.690Z,100.00
2023-04-16T00:17:52.830Z,100.00
2023-04-16T00:20:25.499Z,100.00
2023-04-16T00:22:55.307Z,100.00
2023-04-16T00:25:25.195Z,100.00
2023-04-16T00:27:55.152Z,100.00
2023-04-16T00:30:25.638Z,100.00
2023-04-16T00:32:55.530Z,100.00
2023-04-16T00:35:27.926Z,100.00
2023-04-16T00:37:57.679Z,100.00
2023-04-16T00:40:30.325Z,100.00
2023-04-16T00:43:00.060Z,100.00
2023-04-16T00:45:30.155Z,100.00
2023-04-16T00:48:01.264Z,100.00
2023-04-16T00:50:33.643Z,100.00
2023-04-16T00:53:04.701Z,100.00
2023-04-16T00:55:34.589Z,100.00
2023-04-16T00:58:04.353Z,100.00
2023-04-16T01:00:34.151Z,100.00
2023-04-16T01:03:04.306Z,100.00
2023-04-16T01:05:36.780Z,100.00
2023-04-16T01:08:06.754Z,100.00
2023-04-16T01:10:36.478Z,100.00
2023-04-16T01:13:06.217Z,100.00
2023-04-16T01:15:36.146Z,100.00
2023-04-16T01:18:06.324Z,100.00
2023-04-16T01:20:40.123Z,100.00
2023-04-16T01:23:10.075Z,100.00
2023-04-16T01:25:39.960Z,100.00
2023-04-16T01:28:10.864Z,100.00
2023-04-16T01:30:40.639Z,100.00
2023-04-16T01:33:30.678Z,100.00
2023-04-16T01:36:03.033Z,100.00
2023-04-16T01:38:32.820Z,100.00
2023-04-16T01:41:02.572Z,100.00
2023-04-16T01:43:32.354Z,100.00
2023-04-16T01:46:16.570Z,100.00
2023-04-16T01:48:46.390Z,100.00
2023-04-16T01:51:18.736Z,100.00
2023-04-16T01:53:48.544Z,100.00
2023-04-16T01:56:18.276Z,100.00
2023-04-16T01:58:48.315Z,100.00
2023-04-16T02:01:20.039Z,100.00
2023-04-16T02:03:50.802Z,100.00
2023-04-16T02:06:23.285Z,100.00
2023-04-16T02:08:53.231Z,100.00
2023-04-16T02:11:23.998Z,100.00
2023-04-16T02:13:54.172Z,100.00
2023-04-16T02:16:24.253Z,100.00
2023-04-16T02:19:04.475Z,100.00
2023-04-16T02:21:40.045Z,100.00
2023-04-16T02:24:10.074Z,100.00
2023-04-16T02:26:40.112Z,100.00
2023-04-16T02:29:16.696Z,100.00
2023-04-16T02:31:52.965Z,100.00
2023-04-16T02:34:23.211Z,100.00
2023-04-16T02:36:55.863Z,100.00
2023-04-16T02:39:25.645Z,100.00
2023-04-16T02:41:56.400Z,100.00
2023-04-16T02:44:26.338Z,100.00
2023-04-16T02:46:56.094Z,100.00
2023-04-16T02:49:26.052Z,100.00
2023-04-16T02:51:58.342Z,100.00
2023-04-16T02:54:28.216Z,100.00
2023-04-16T02:56:57.975Z,100.00
2023-04-16T02:59:27.719Z,100.00
2023-04-16T03:01:57.550Z,100.00
2023-04-16T03:04:27.524Z,100.00
2023-04-16T03:06:59.904Z,100.00
2023-04-16T03:09:29.645Z,100.00
2023-04-16T03:11:59.683Z,100.00
2023-04-16T03:14:29.377Z,100.00
2023-04-16T03:16:59.217Z,100.00
2023-04-16T03:19:29.056Z,100.00
2023-04-16T03:22:01.436Z,100.00
2023-04-16T03:24:31.220Z,100.00
2023-04-16T03:27:02.762Z,100.00
2023-04-16T03:29:32.617Z,100.00
2023-04-16T03:32:02.433Z,100.00
2023-04-16T03:34:32.185Z,100.00
2023-04-16T03:37:06.270Z,100.00
2023-04-16T03:39:36.640Z,100.00
2023-04-16T03:42:06.715Z,100.00
2023-04-16T03:44:37.441Z,100.00
2023-04-16T03:47:07.171Z,100.00
2023-04-16T03:49:37.882Z,100.00
2023-04-16T03:52:11.406Z,100.00
2023-04-16T03:54:41.227Z,100.00
2023-04-16T03:57:22.349Z,100.00
2023-04-16T03:59:52.076Z,100.00
2023-04-16T04:02:22.357Z,100.00
2023-04-16T04:04:52.235Z,100.00
2023-04-16T04:07:24.609Z,100.00
2023-04-16T04:09:55.425Z,100.00
2023-04-16T04:12:25.206Z,100.00
2023-04-16T04:14:55.022Z,100.00
2023-04-16T04:17:24.912Z,100.00
2023-04-16T04:22:32.789Z,100.00
2023-04-16T04:25:02.634Z,100.00
2023-04-16T04:27:35.069Z,100.00
2023-04-16T04:30:06.479Z,100.00
2023-04-16T04:32:36.912Z,100.00
2023-04-16T04:35:07.091Z,100.00
2023-04-16T04:37:39.586Z,100.00
2023-04-16T04:40:16.750Z,100.00
2023-04-16T04:42:46.587Z,100.00
2023-04-16T04:45:16.471Z,100.00
2023-04-16T04:47:46.222Z,100.00
2023-04-16T04:50:16.021Z,100.00
2023-04-16T04:52:48.348Z,100.00
2023-04-16T04:55:18.105Z,100.00
2023-04-16T04:57:47.997Z,100.00
2023-04-16T05:00:17.743Z,100.00
2023-04-16T05:02:55.145Z,100.00
2023-04-16T05:05:25.280Z,100.00
2023-04-16T05:07:57.602Z,100.00
2023-04-16T05:10:27.363Z,100.00
2023-04-16T05:12:57.297Z,100.00
2023-04-16T05:15:27.054Z,100.00
2023-04-16T05:17:56.757Z,100.00
2023-04-16T05:20:26.897Z,100.00
2023-04-16T05:22:59.198Z,100.00
2023-04-16T05:25:28.926Z,100.00
2023-04-16T05:27:58.617Z,100.00
2023-04-16T05:30:28.399Z,100.00
2023-04-16T05:32:58.159Z,100.00
2023-04-16T05:35:27.930Z,100.00
2023-04-16T05:38:00.299Z,100.00
2023-04-16T05:40:30.032Z,100.00
2023-04-16T05:42:59.786Z,100.00
2023-04-16T05:45:29.622Z,100.00
2023-04-16T05:47:59.402Z,100.00
2023-04-16T05:50:29.195Z,100.00
2023-04-16T05:53:01.532Z,100.00
2023-04-16T05:55:31.301Z,100.00
2023-04-16T05:58:01.305Z,100.00
2023-04-16T06:00:31.077Z,100.00
2023-04-16T06:03:01.202Z,100.00
2023-04-16T06:05:31.961Z,100.00
2023-04-16T06:08:04.408Z,100.00
2023-04-16T06:10:34.233Z,100.00
2023-04-16T06:13:03.958Z,100.00
2023-04-16T06:15:33.693Z,100.00
2023-04-16T06:18:03.518Z,100.00
2023-04-16T06:20:33.572Z,100.00
2023-04-16T06:23:05.904Z,100.00
2023-04-16T06:25:35.665Z,100.00
2023-04-16T06:28:05.426Z,100.00
2023-04-16T06:30:35.303Z,100.00
2023-04-16T06:33:05.124Z,100.00
2023-04-16T06:35:34.857Z,100.00
2023-04-16T06:38:07.157Z,100.00
2023-04-16T06:40:37.663Z,100.00
2023-04-16T06:43:07.559Z,100.00
2023-04-16T06:45:37.553Z,100.00
2023-04-16T06:48:08.272Z,100.00
2023-04-16T06:50:38.014Z,100.00
2023-04-16T06:53:10.780Z,99.79
2023-04-16T06:55:40.535Z,99.07
2023-04-16T06:58:10.367Z,98.24
2023-04-16T07:00:40.169Z,99.95
2023-04-16T07:03:10.061Z,99.56
2023-04-16T07:05:40.256Z,98.40
2023-04-16T07:08:13.066Z,99.23
2023-04-16T07:10:42.826Z,97.72
2023-04-16T07:13:12.846Z,98.38
2023-04-16T07:15:42.571Z,99.26
2023-04-16T07:18:12.308Z,99.62
2023-04-16T07:20:43.128Z,100.00
2023-04-16T07:23:15.468Z,100.00
2023-04-16T07:25:46.001Z,100.00
2023-04-16T07:28:16.778Z,100.00
2023-04-16T07:30:46.543Z,100.00
2023-04-16T07:33:16.305Z,100.00
2023-04-16T07:35:46.193Z,100.00
2023-04-16T07:38:18.808Z,100.00
2023-04-16T07:40:48.627Z,100.00
2023-04-16T07:43:18.576Z,100.00
2023-04-16T07:45:48.632Z,100.00
2023-04-16T07:48:18.369Z,100.00
2023-04-16T07:50:48.138Z,100.00
2023-04-16T07:53:20.600Z,99.97
2023-04-16T07:55:50.308Z,99.61
2023-04-16T07:58:20.105Z,100.00
2023-04-16T08:00:51.075Z,100.00
2023-04-16T08:03:21.065Z,98.51
2023-04-16T08:05:50.938Z,98.99
2023-04-16T08:08:23.264Z,97.90
2023-04-16T08:10:55.966Z,97.70
2023-04-16T08:13:25.822Z,97.50
2023-04-16T08:15:55.615Z,97.68
2023-04-16T08:18:25.765Z,98.80
2023-04-16T08:20:55.547Z,98.75
2023-04-16T08:23:27.864Z,98.60
2023-04-16T08:25:57.754Z,97.76
2023-04-16T08:28:27.469Z,97.51
2023-04-16T08:30:57.260Z,98.17
2023-04-16T08:33:27.027Z,98.39
2023-04-16T08:35:56.795Z,98.60
2023-04-16T08:38:29.227Z,96.94
2023-04-16T08:41:01.550Z,95.80
2023-04-16T08:43:34.619Z,97.31
2023-04-16T08:46:06.335Z,97.14
2023-04-16T08:48:37.237Z,95.96
2023-04-16T08:51:12.282Z,95.97
2023-04-16T08:53:54.820Z,95.48
2023-04-16T08:56:27.507Z,96.22
2023-04-16T08:58:58.593Z,96.05
2023-04-16T09:01:29.573Z,94.85
2023-04-16T09:04:01.734Z,95.79
2023-04-16T09:06:32.252Z,96.98
2023-04-16T09:09:05.603Z,97.50
2023-04-16T09:11:35.684Z,96.83
2023-04-16T09:14:06.433Z,96.87
2023-04-16T09:16:37.087Z,97.13
2023-04-16T09:19:07.836Z,96.96
2023-04-16T09:21:38.336Z,96.63
2023-04-16T09:24:11.313Z,96.33
2023-04-16T09:26:41.588Z,96.32
2023-04-16T09:29:11.589Z,96.23
2023-04-16T09:31:41.707Z,96.61
2023-04-16T09:34:12.242Z,95.55
2023-04-16T09:36:42.017Z,93.55
2023-04-16T09:39:22.172Z,93.09
2023-04-16T09:41:52.711Z,93.53
2023-04-16T09:44:22.513Z,92.49
2023-04-16T09:46:52.262Z,92.90
2023-04-16T09:49:21.993Z,92.40
2023-04-16T09:51:54.764Z,93.42
2023-04-16T09:54:28.923Z,92.95
2023-04-16T09:56:59.961Z,91.96
2023-04-16T09:59:34.225Z,92.10
2023-04-16T10:02:15.291Z,91.81
2023-04-16T10:04:52.919Z,92.30
2023-04-16T10:07:23.545Z,91.46
2023-04-16T10:09:56.091Z,91.58
2023-04-16T10:12:25.858Z,92.31
2023-04-16T10:14:55.756Z,92.16
2023-04-16T10:17:26.190Z,92.37
2023-04-16T10:19:57.502Z,92.29
2023-04-16T10:22:27.313Z,91.85
2023-04-16T10:25:00.706Z,91.73
2023-04-16T10:27:31.259Z,92.45
2023-04-16T10:30:01.194Z,92.06
2023-04-16T10:32:31.836Z,91.82
2023-04-16T10:35:01.672Z,92.38
2023-04-16T10:37:34.960Z,91.78
2023-04-16T10:40:25.343Z,92.88
2023-04-16T10:42:59.279Z,93.47
2023-04-16T10:45:39.804Z,92.31
2023-04-16T10:48:15.206Z,92.76
2023-04-16T10:50:45.800Z,93.22
2023-04-16T10:53:24.216Z,91.97
2023-04-16T10:56:17.042Z,91.56
2023-04-16T10:58:49.687Z,92.59
2023-04-16T11:01:20.305Z,91.95
2023-04-16T11:03:52.545Z,92.98
2023-04-16T11:06:28.942Z,93.01
2023-04-16T11:09:02.264Z,93.62
2023-04-16T11:11:42.451Z,93.99
2023-04-16T11:14:15.231Z,94.59
2023-04-16T11:16:47.311Z,94.76
2023-04-16T11:19:20.702Z,94.22
2023-04-16T11:21:51.612Z,94.01
2023-04-16T11:24:22.789Z,94.05
2023-04-16T11:26:57.927Z,94.04
2023-04-16T11:29:28.853Z,93.72
2023-04-16T11:31:59.591Z,93.00
2023-04-16T11:34:30.558Z,93.99
2023-04-16T11:37:01.286Z,93.66
2023-04-16T11:39:32.247Z,92.02
2023-04-16T11:42:07.934Z,92.27
2023-04-16T11:44:38.620Z,92.83
2023-04-16T11:47:09.449Z,93.23
2023-04-16T11:49:42.826Z,92.87
2023-04-16T11:52:13.542Z,91.90
2023-04-16T11:54:44.508Z,92.72
2023-04-16T11:57:19.786Z,92.17
2023-04-16T12:00:01.553Z,92.25
2023-04-16T12:02:49.652Z,91.99
2023-04-16T12:05:31.504Z,92.23
2023-04-16T12:08:04.192Z,91.53
2023-04-16T12:10:38.087Z,91.89
2023-04-16T12:13:19.251Z,91.22
2023-04-16T12:15:53.746Z,90.73
2023-04-16T12:18:27.205Z,89.94
2023-04-16T12:20:57.999Z,89.39
2023-04-16T12:23:30.136Z,90.20
2023-04-16T12:26:03.087Z,89.68
2023-04-16T12:28:49.334Z,89.82
2023-04-16T12:31:20.737Z,90.43
2023-04-16T12:34:05.297Z,90.25
2023-04-16T12:36:37.435Z,89.90
2023-04-16T12:39:07.978Z,89.28
2023-04-16T12:41:41.235Z,88.57
2023-04-16T12:44:18.819Z,88.08
2023-04-16T12:46:50.070Z,89.09
2023-04-16T12:49:20.807Z,88.21
2023-04-16T12:51:52.867Z,88.28
2023-04-16T12:54:24.806Z,88.90
2023-04-16T12:56:55.415Z,87.40
2023-04-16T12:59:28.584Z,86.98
2023-04-16T13:01:59.289Z,87.19
2023-04-16T13:04:31.353Z,86.41
2023-04-16T13:07:01.419Z,85.26
2023-04-16T13:09:31.234Z,85.47
2023-04-16T13:12:01.016Z,85.61
2023-04-16T13:14:33.304Z,84.70
2023-04-16T13:17:04.173Z,85.13
2023-04-16T13:19:34.141Z,85.64
2023-04-16T13:22:06.120Z,84.64
2023-04-16T13:24:36.056Z,84.68
2023-04-16T13:27:06.020Z,83.65
2023-04-16T13:29:38.848Z,83.01
2023-04-16T13:32:09.876Z,83.75
2023-04-16T13:34:39.958Z,84.32
2023-04-16T13:37:09.747Z,84.25
2023-04-16T13:39:39.517Z,83.98
2023-04-16T13:42:09.431Z,83.83
2023-04-16T13:44:41.748Z,83.82
2023-04-16T13:47:11.857Z,84.18
2023-04-16T13:49:41.638Z,82.71
2023-04-16T13:52:11.356Z,83.90
2023-04-16T13:54:43.874Z,82.69
2023-04-16T13:57:22.919Z,82.14
2023-04-16T13:59:55.354Z,81.70
2023-04-16T14:02:26.310Z,81.92
2023-04-16T14:04:56.477Z,82.05
2023-04-16T14:07:27.392Z,81.42
2023-04-16T14:09:57.254Z,82.67
2023-04-16T14:12:27.040Z,83.81
2023-04-16T14:14:59.473Z,81.80
2023-04-16T14:17:29.225Z,80.16
2023-04-16T14:19:59.069Z,79.27
2023-04-16T14:22:28.866Z,81.06
2023-04-16T14:24:59.108Z,80.33
2023-04-16T14:27:28.925Z,80.17
2023-04-16T14:30:01.603Z,81.27
2023-04-16T14:32:31.449Z,81.22
2023-04-16T14:35:01.276Z,80.68
2023-04-16T14:37:31.267Z,81.31
2023-04-16T14:40:01.016Z,81.42
2023-04-16T14:42:30.760Z,82.01
2023-04-16T14:45:03.097Z,81.72
2023-04-16T14:47:32.886Z,81.55
2023-04-16T14:50:02.691Z,82.11
2023-04-16T14:52:33.903Z,81.76
2023-04-16T14:55:03.663Z,81.74
2023-04-16T14:57:33.573Z,82.25
2023-04-16T15:00:09.208Z,83.28
2023-04-16T15:02:39.559Z,82.14
2023-04-16T15:05:10.788Z,81.03
2023-04-16T15:07:40.848Z,81.67
2023-04-16T15:10:12.826Z,80.94
2023-04-16T15:12:43.054Z,80.22
2023-04-16T15:15:16.006Z,80.82
2023-04-16T15:17:46.360Z,82.65
2023-04-16T15:20:16.396Z,81.40
2023-04-16T15:22:46.331Z,81.40
2023-04-16T15:25:16.080Z,81.19
2023-04-16T15:27:45.827Z,80.32
2023-04-16T15:30:18.539Z,79.77
2023-04-16T15:32:48.410Z,79.54
2023-04-16T15:35:18.133Z,79.46
2023-04-16T15:37:47.896Z,79.34
2023-04-16T15:40:19.051Z,79.77
2023-04-16T15:42:48.823Z,80.15
2023-04-16T15:45:21.404Z,79.51
2023-04-16T15:47:51.570Z,79.98
2023-04-16T15:50:22.041Z,79.12
2023-04-16T15:52:52.006Z,79.80
2023-04-16T15:55:22.088Z,80.35
2023-04-16T15:57:52.488Z,78.88
2023-04-16T16:00:24.897Z,79.44
2023-04-16T16:02:54.731Z,79.46
2023-04-16T16:05:24.749Z,79.02
2023-04-16T16:07:54.681Z,79.90
2023-04-16T16:10:24.424Z,80.32
2023-04-16T16:12:54.192Z,80.55
2023-04-16T16:15:26.514Z,80.49
2023-04-16T16:17:58.392Z,80.25
2023-04-16T16:20:28.777Z,80.75
2023-04-16T16:22:58.514Z,81.29
2023-04-16T16:25:28.250Z,81.46
2023-04-16T16:27:58.972Z,81.62
2023-04-16T16:30:32.990Z,82.40
2023-04-16T16:33:02.883Z,82.61
2023-04-16T16:35:32.728Z,82.88
2023-04-16T16:38:02.455Z,82.66
2023-04-16T16:40:33.202Z,83.56
2023-04-16T16:43:03.019Z,83.34
2023-04-16T16:45:35.489Z,83.51
2023-04-16T16:48:06.144Z,83.55
2023-04-16T16:50:35.949Z,83.38
2023-04-16T16:53:06.110Z,83.75
2023-04-16T16:55:35.924Z,82.95
2023-04-16T16:58:05.916Z,84.21
2023-04-16T17:00:38.283Z,84.28
2023-04-16T17:03:09.019Z,84.54
2023-04-16T17:05:39.406Z,85.22
2023-04-16T17:08:09.539Z,85.00
2023-04-16T17:10:39.301Z,85.81
2023-04-16T17:13:09.058Z,86.00
2023-04-16T17:15:41.396Z,86.24
2023-04-16T17:18:11.180Z,86.17
2023-04-16T17:20:41.143Z,86.46
2023-04-16T17:23:11.346Z,86.40
2023-04-16T17:25:41.209Z,86.79
2023-04-16T17:28:11.035Z,87.74
2023-04-16T17:30:43.357Z,87.00
2023-04-16T17:33:13.201Z,86.65
2023-04-16T17:35:43.256Z,86.71
2023-04-16T17:38:13.030Z,87.26
2023-04-16T17:40:42.847Z,87.44
2023-04-16T17:43:12.610Z,87.62
2023-04-16T17:45:44.971Z,87.07
2023-04-16T17:48:14.733Z,87.43
2023-04-16T17:50:44.491Z,87.29
2023-04-16T17:53:14.585Z,88.09
2023-04-16T17:55:54.559Z,88.26
2023-04-16T17:58:26.579Z,89.00
2023-04-16T18:00:58.894Z,89.38
2023-04-16T18:03:28.847Z,88.66
2023-04-16T18:05:58.676Z,88.29
2023-04-16T18:08:29.080Z,88.85
2023-04-16T18:10:58.965Z,88.83
2023-04-16T18:13:28.793Z,88.69
2023-04-16T18:16:01.239Z,88.95
2023-04-16T18:18:31.100Z,88.84
2023-04-16T18:21:00.841Z,89.09
2023-04-16T18:23:30.643Z,89.64
2023-04-16T18:26:00.604Z,89.71
2023-04-16T18:28:30.458Z,90.06
2023-04-16T18:31:05.701Z,89.94
2023-04-16T18:33:53.373Z,90.04
2023-04-16T18:36:26.162Z,90.45
2023-04-16T18:41:29.192Z,90.01
2023-04-16T18:43:59.201Z,90.21
2023-04-16T18:46:31.639Z,89.73
2023-04-16T18:49:01.785Z,89.59
2023-04-16T18:51:31.835Z,88.97
2023-04-16T18:54:02.304Z,88.82
2023-04-16T18:56:32.378Z,89.66
2023-04-16T18:59:02.277Z,89.05
2023-04-16T19:01:34.681Z,89.59
2023-04-16T19:04:04.428Z,89.73
2023-04-16T19:06:34.202Z,90.03
2023-04-16T19:09:03.910Z,90.10
2023-04-16T19:11:33.648Z,90.01
2023-04-16T19:14:05.533Z,90.06
2023-04-16T19:16:41.877Z,90.26
2023-04-16T19:19:11.942Z,90.42
2023-04-16T19:21:41.932Z,90.39
2023-04-16T19:24:11.883Z,90.19
2023-04-16T19:26:41.634Z,90.43
2023-04-16T19:29:11.930Z,90.67
2023-04-16T19:31:46.444Z,90.80
2023-04-16T19:34:16.932Z,90.82
2023-04-16T19:36:47.274Z,91.26
2023-04-16T19:39:16.995Z,91.81
2023-04-16T19:41:46.722Z,91.71
2023-04-16T19:44:16.470Z,91.97
2023-04-16T19:46:48.816Z,91.79
2023-04-16T19:49:18.788Z,91.82
2023-04-16T19:51:49.015Z,92.04
2023-04-16T19:54:18.746Z,92.36
2023-04-16T19:56:49.074Z,93.04
2023-04-16T19:59:18.831Z,93.23
2023-04-16T20:01:51.392Z,92.45
2023-04-16T20:04:21.178Z,93.22
2023-04-16T20:06:50.945Z,92.86
2023-04-16T20:09:21.018Z,93.12
2023-04-16T20:11:51.698Z,93.63
2023-04-16T20:14:21.565Z,94.00
2023-04-16T20:16:53.898Z,94.54
2023-04-16T20:19:31.497Z,94.13
2023-04-16T20:22:01.281Z,94.22
2023-04-16T20:24:31.274Z,93.52
2023-04-16T20:27:01.868Z,93.75
2023-04-16T20:29:31.784Z,94.08
2023-04-16T20:32:04.183Z,95.23
2023-04-16T20:34:34.004Z,95.94
2023-04-16T20:37:03.784Z,97.02
2023-04-16T20:39:34.381Z,97.21
2023-04-16T20:42:04.462Z,97.96
2023-04-16T20:44:40.589Z,98.09
2023-04-16T20:47:15.459Z,98.71
2023-04-16T20:49:46.510Z,97.63
2023-04-16T20:52:16.757Z,97.49
2023-04-16T20:54:47.363Z,97.16
2023-04-16T20:57:17.205Z,97.36
2023-04-16T20:59:46.961Z,97.40
2023-04-16T21:02:20.294Z,97.55
2023-04-16T21:04:50.386Z,97.47
2023-04-16T21:07:20.456Z,97.43
2023-04-16T21:09:51.249Z,96.93
2023-04-16T21:12:21.251Z,95.94
2023-04-16T21:14:51.096Z,96.63
2023-04-16T21:17:23.497Z,96.81
2023-04-16T21:19:53.273Z,97.06
2023-04-16T21:22:23.116Z,96.18
2023-04-16T21:24:52.921Z,97.37
2023-04-16T21:27:22.818Z,96.85
2023-04-16T21:29:52.779Z,95.89
2023-04-16T21:32:25.181Z,95.43
2023-04-16T21:34:54.965Z,95.00
2023-04-16T21:37:24.766Z,94.95
2023-04-16T21:39:54.537Z,94.96
2023-04-16T21:42:24.257Z,94.71
2023-04-16T21:44:54.052Z,95.21
2023-04-16T21:47:26.755Z,94.99
2023-04-16T21:49:56.492Z,95.06
2023-04-16T21:52:26.277Z,95.13
2023-04-16T21:54:56.022Z,95.55
2023-04-16T21:57:25.836Z,95.10
2023-04-16T21:59:55.594Z,94.93
2023-04-16T22:02:28.816Z,94.82
2023-04-16T22:04:58.739Z,95.01
2023-04-16T22:07:29.124Z,95.23
2023-04-16T22:09:59.213Z,95.76
2023-04-16T22:12:29.056Z,95.25
2023-04-16T22:15:02.731Z,96.37
2023-04-16T22:17:36.064Z,96.00
2023-04-16T22:20:09.506Z,95.99
2023-04-16T22:22:39.279Z,95.90
2023-04-16T22:25:09.999Z,95.65
2023-04-16T22:27:40.171Z,95.57
2023-04-16T22:30:11.383Z,96.02
2023-04-16T22:32:43.814Z,96.10
2023-04-16T22:35:13.768Z,95.38
2023-04-16T22:37:43.620Z,94.31
2023-04-16T22:40:13.735Z,94.78
2023-04-16T22:42:43.565Z,94.58
2023-04-16T22:45:14.451Z,94.32
2023-04-16T22:47:46.833Z,93.85
2023-04-16T22:50:16.766Z,94.32
2023-04-16T22:52:46.525Z,94.47
2023-04-16T22:55:16.319Z,94.14
2023-04-16T22:57:46.053Z,94.29
2023-04-16T23:00:17.962Z,95.04
2023-04-16T23:02:50.524Z,94.54
2023-04-16T23:05:20.445Z,94.51
2023-04-16T23:07:50.273Z,95.37
2023-04-16T23:10:20.434Z,95.07
2023-04-16T23:12:50.221Z,94.47
2023-04-16T23:15:20.281Z,94.09
2023-04-16T23:17:52.854Z,93.91
2023-04-16T23:20:22.703Z,94.03
2023-04-16T23:22:52.932Z,94.43
2023-04-16T23:25:23.762Z,94.17
2023-04-16T23:27:53.603Z,94.15
2023-04-16T23:30:23.490Z,94.48
2023-04-16T23:32:55.852Z,94.40
2023-04-16T23:35:25.595Z,94.38
2023-04-16T23:37:55.470Z,93.22
2023-04-16T23:40:25.855Z,93.51
2023-04-16T23:42:55.609Z,93.77
2023-04-16T23:45:25.420Z,93.59
2023-04-16T23:47:57.881Z,93.29
2023-04-16T23:50:27.764Z,93.81
2023-04-16T23:52:57.518Z,93.34
2023-04-16T23:55:27.641Z,94.24
2023-04-16T23:57:57.379Z,93.77
